This is the latest recevied weather packets stored in our database for station/object PP5CFL-2. If no packets are shown the sender has not sent any weather packets the latest 10 day(s).
| Time | Temp. | Humidity | Pressure | Rain* | Wind** | Luminosity | Snow |
|---|---|---|---|---|---|---|---|
| 1778157229 | 29.44° C | 69% | 1010.6 hPa | - | - | - | - |
| 1778156930 | 29.44° C | 70% | 1010.6 hPa | - | - | - | - |
| 1778156629 | 29.44° C | 72% | 1010.9 hPa | - | - | - | - |
| 1778156329 | 28.33° C | 75% | 1010.9 hPa | - | - | - | - |
| 1778156029 | 27.22° C | 80% | 1011.1 hPa | - | - | - | - |
| 1778155729 | 27.78° C | 78% | 1011 hPa | - | - | - | - |
| 1778155429 | 27.22° C | 80% | 1011.2 hPa | - | - | - | - |
| 1778155129 | 26.11° C | 87% | 1011.4 hPa | - | - | - | - |
| 1778154829 | 23.89° C | 94% | 1011.9 hPa | - | - | - | - |
| 1778154529 | 23.89° C | 94% | 1011.8 hPa | - | - | - | - |
| 1778154229 | 23.89° C | 95% | 1011.9 hPa | - | - | - | - |
| 1778153929 | 23.89° C | 95% | 1012 hPa | - | - | - | - |
| 1778153629 | 23.89° C | 95% | 1012.1 hPa | - | - | - | - |
| 1778153329 | 23.89° C | 95% | 1012.1 hPa | - | - | - | - |
| 1778153030 | 23.89° C | 95% | 1012 hPa | - | - | - | - |
| 1778152729 | 23.89° C | 96% | 1011.9 hPa | - | - | - | - |
| 1778152429 | 23.89° C | 95% | 1012 hPa | - | - | - | - |
| 1778152129 | 23.89° C | 95% | 1012.1 hPa | - | - | - | - |
| 1778151829 | 23.89° C | 96% | 1011.9 hPa | - | - | - | - |
| 1778151529 | 23.89° C | 97% | 1011.9 hPa | - | - | - | - |
| 1778151229 | 23.89° C | 96% | 1011.9 hPa | - | - | - | - |
| 1778150929 | 23.89° C | 97% | 1011.9 hPa | - | - | - | - |
| 1778150629 | 23.33° C | 97% | 1011.9 hPa | - | - | - | - |
| 1778150329 | 23.33° C | 97% | 1011.9 hPa | - | - | - | - |
| 1778150029 | 23.33° C | 97% | 1012 hPa | - | - | - | - |
* Rain since midnight (hover to see other rain measurements)
** Current wind speed in m/s (hover to see current wind gust speed)